Time;durP1;ratioP1;P1;durP2;ratioP2;P2;SDS_P1;SDS_P2;PMS_P1;PMS_P2;Temp;Humidity;BMP_temperature;BMP_pressure;BME280_temperature;BME280_humidity;BME280_pressure;Samples;Min_cycle;Max_cycle;Signal;HPM_P1;HPM_P2
2023/08/26 00:00:12;;;;;;;2.50;1.40;;;;;;;23.69;89.63;98863.78;332109;29;4647;-89
2023/08/26 00:00:24;;;;;;;2.15;1.45;;;;;;;23.68;89.58;98870.91;329715;29;16252;-90
2023/08/26 00:00:36;;;;;;;2.13;1.52;;;;;;;23.68;89.15;98881.50;333664;29;4517;-89
2023/08/26 00:00:48;;;;;;;2.35;1.70;;;;;;;23.65;88.76;98871.19;331852;28;4495;-90
2023/08/26 00:01:01;;;;;;;2.55;1.88;;;;;;;23.65;88.70;98867.72;335715;28;5100;-89
2023/08/26 00:01:13;;;;;;;2.15;1.70;;;;;;;23.65;88.80;98875.69;333232;29;16319;-89
2023/08/26 00:01:25;;;;;;;1.90;1.58;;;;;;;23.67;89.13;98879.84;337273;28;4585;-89
2023/08/26 00:01:37;;;;;;;2.40;1.70;;;;;;;23.67;88.86;98876.34;330200;29;4618;-90
2023/08/26 00:01:49;;;;;;;2.28;1.80;;;;;;;23.68;88.97;98875.34;331689;28;18119;-89
2023/08/26 00:02:01;;;;;;;2.30;1.90;;;;;;;23.68;89.04;98872.69;333362;29;4490;-89
2023/08/26 00:02:13;;;;;;;2.13;1.92;;;;;;;23.69;89.36;98871.72;336318;28;4682;-89
2023/08/26 00:02:26;;;;;;;2.08;1.70;;;;;;;23.68;89.05;98875.34;333106;28;16857;-90
2023/08/26 00:02:38;;;;;;;2.38;1.70;;;;;;;23.69;89.05;98867.25;334807;29;4502;-88
2023/08/26 00:02:50;;;;;;;2.42;1.73;;;;;;;23.67;89.75;98863.09;332749;29;4486;-89
2023/08/26 00:03:03;;;;;;;1.98;1.60;;;;;;;23.67;89.80;98871.03;335860;28;4681;-89
2023/08/26 00:03:15;;;;;;;3.38;1.55;;;;;;;23.68;89.68;98867.41;330611;29;16794;-89
2023/08/26 00:03:27;;;;;;;3.65;1.60;;;;;;;23.68;89.98;98864.75;334666;28;4472;-89
2023/08/26 00:03:39;;;;;;;2.40;1.55;;;;;;;23.67;89.83;98877.19;332244;29;16854;-89
2023/08/26 00:03:51;;;;;;;2.78;1.58;;;;;;;23.66;90.53;98872.03;334640;29;4516;-89
2023/08/26 00:04:03;;;;;;;3.65;1.65;;;;;;;23.65;90.42;98871.19;335967;29;4522;-90
2023/08/26 00:04:16;;;;;;;4.20;1.80;;;;;;;23.66;90.19;98866.72;328311;29;18010;-89
2023/08/26 00:04:28;;;;;;;4.68;1.83;;;;;;;23.66;90.52;98872.88;335844;28;4508;-89
2023/08/26 00:04:40;;;;;;;4.30;1.90;;;;;;;23.66;90.39;98877.31;331746;29;16751;-89
2023/08/26 00:04:52;;;;;;;3.85;1.77;;;;;;;23.66;90.84;98877.31;331513;29;4552;-89
2023/08/26 00:05:05;;;;;;;4.60;1.63;;;;;;;23.63;90.76;98878.47;333105;29;6126;-88
2023/08/26 00:05:17;;;;;;;4.93;1.95;;;;;;;23.63;90.31;98872.34;330792;29;17376;-89
2023/08/26 00:05:29;;;;;;;3.15;2.00;;;;;;;23.64;90.62;98879.31;334596;29;4567;-89
2023/08/26 00:05:42;;;;;;;2.70;1.83;;;;;;;23.61;91.19;98880.44;329776;29;17229;-89
2023/08/26 00:05:54;;;;;;;2.63;1.92;;;;;;;23.59;91.41;98881.59;331200;29;4560;-89
2023/08/26 00:06:06;;;;;;;3.30;1.92;;;;;;;23.55;91.85;98883.72;332531;29;16916;-89
2023/08/26 00:06:18;;;;;;;3.20;1.92;;;;;;;23.52;92.18;98890.16;332663;29;4548;-89
2023/08/26 00:06:30;;;;;;;3.25;1.95;;;;;;;23.54;91.96;98892.63;330454;29;18172;-90
2023/08/26 00:06:42;;;;;;;2.50;1.85;;;;;;;23.50;91.98;98894.78;333378;29;4489;-89
2023/08/26 00:06:55;;;;;;;2.13;1.50;;;;;;;23.54;91.86;98895.28;333990;29;10684;-89
2023/08/26 00:07:08;;;;;;;4.25;1.73;;;;;;;23.53;92.03;98899.78;330787;29;16383;-89
2023/08/26 00:07:20;;;;;;;4.47;1.90;;;;;;;23.55;92.03;98901.44;333412;29;4773;-90
2023/08/26 00:07:32;;;;;;;3.28;2.03;;;;;;;23.54;91.85;98905.91;331954;29;4535;-90
2023/08/26 00:07:44;;;;;;;4.75;1.73;;;;;;;23.55;91.87;98896.97;336076;29;4559;-90
2023/08/26 00:07:56;;;;;;;4.30;1.55;;;;;;;23.55;92.17;98902.28;334563;28;16635;-90
2023/08/26 00:08:08;;;;;;;3.50;1.60;;;;;;;23.53;91.94;98905.06;335772;28;4532;-89
2023/08/26 00:08:20;;;;;;;2.80;1.60;;;;;;;23.53;91.87;98910.38;333728;28;4564;-89
2023/08/26 00:08:32;;;;;;;3.35;1.70;;;;;;;23.55;91.82;98912.06;328993;29;4540;-89
2023/08/26 00:08:44;;;;;;;2.85;1.63;;;;;;;23.53;92.40;98909.56;331776;29;4594;-89
2023/08/26 00:08:56;;;;;;;3.10;1.70;;;;;;;23.50;91.77;98910.69;325417;29;18106;-89
2023/08/26 00:09:09;;;;;;;2.35;1.63;;;;;;;23.47;92.13;98904.84;331916;29;4576;-89
2023/08/26 00:09:21;;;;;;;2.28;1.55;;;;;;;23.47;92.51;98910.97;330218;29;9544;-90
2023/08/26 00:09:33;;;;;;;2.40;1.52;;;;;;;23.47;92.37;98910.97;334654;29;4518;-89
2023/08/26 00:09:45;;;;;;;3.00;1.58;;;;;;;23.48;92.33;98912.66;335880;28;4559;-89
2023/08/26 00:09:57;;;;;;;2.95;1.60;;;;;;;23.48;92.12;98907.38;332841;28;17493;-89
2023/08/26 00:10:09;;;;;;;2.57;1.60;;;;;;;23.48;92.33;98907.38;330441;28;4797;-89
2023/08/26 00:10:21;;;;;;;2.17;1.60;;;;;;;23.47;92.66;98910.97;332075;29;4466;-90
2023/08/26 00:10:34;;;;;;;2.55;1.63;;;;;;;23.46;92.28;98909.34;334097;28;4560;-89
2023/08/26 00:10:46;;;;;;;2.95;1.60;;;;;;;23.48;92.17;98906.50;334560;29;4520;-89
2023/08/26 00:10:58;;;;;;;3.13;1.55;;;;;;;23.48;92.11;98902.06;331583;29;17683;-90
2023/08/26 00:11:11;;;;;;;2.67;1.88;;;;;;;23.48;91.97;98910.00;333146;29;4520;-89
2023/08/26 00:11:23;;;;;;;2.28;1.90;;;;;;;23.47;91.55;98900.38;330671;29;18167;-89
2023/08/26 00:11:35;;;;;;;3.40;1.83;;;;;;;23.45;91.51;98902.34;333220;29;4652;-89
2023/08/26 00:11:49;;;;;;;3.63;1.83;;;;;;;23.43;91.45;98899.00;328723;29;4511;-89
2023/08/26 00:12:01;;;;;;;2.28;1.80;;;;;;;23.40;91.08;98901.97;331725;29;16468;-89
2023/08/26 00:12:13;;;;;;;1.98;1.67;;;;;;;23.39;91.26;98908.25;332008;29;17152;-88
2023/08/26 00:12:25;;;;;;;2.08;1.70;;;;;;;23.38;91.35;98905.75;334811;29;4492;-89
2023/08/26 00:12:37;;;;;;;3.55;1.90;;;;;;;23.35;91.25;98896.28;334582;29;4536;-89
2023/08/26 00:12:50;;;;;;;4.10;2.00;;;;;;;23.31;91.72;98903.69;331760;29;16960;-89
2023/08/26 00:13:03;;;;;;;2.65;1.90;;;;;;;23.25;91.81;98900.81;332987;29;11841;-89
2023/08/26 00:13:15;;;;;;;2.75;1.73;;;;;;;23.21;92.47;98902.09;330255;29;19004;-89
2023/08/26 00:13:27;;;;;;;4.30;1.73;;;;;;;23.15;93.14;98902.69;336089;28;4524;-89
2023/08/26 00:13:39;;;;;;;4.00;1.90;;;;;;;23.09;92.99;98899.63;331807;29;16386;-88
2023/08/26 00:13:51;;;;;;;2.90;1.75;;;;;;;23.04;93.25;98909.88;335727;29;4507;-89
2023/08/26 00:14:06;;;;;;;2.05;1.70;;;;;;;22.98;93.39;98902.47;331678;29;17593;-89
2023/08/26 00:14:18;;;;;;;2.63;1.73;;;;;;;22.91;94.05;98904.03;330801;29;17328;-89
2023/08/26 00:14:30;;;;;;;2.95;1.63;;;;;;;22.87;94.27;98908.78;332140;29;4493;-89
2023/08/26 00:14:42;;;;;;;2.65;1.70;;;;;;;22.78;95.13;98904.38;331725;29;4497;-89
2023/08/26 00:14:54;;;;;;;3.47;1.70;;;;;;;22.74;95.17;98897.72;332146;29;17751;-89
2023/08/26 00:15:06;;;;;;;3.80;1.70;;;;;;;22.72;95.43;98897.03;334096;29;4486;-90
2023/08/26 00:15:19;;;;;;;3.13;1.67;;;;;;;22.69;95.94;98900.78;333085;28;10399;-89
2023/08/26 00:15:31;;;;;;;3.20;1.63;;;;;;;22.67;96.19;98892.16;334679;29;4490;-89
2023/08/26 00:15:43;;;;;;;2.80;1.58;;;;;;;22.65;96.41;98896.75;332881;29;4516;-89
2023/08/26 00:15:55;;;;;;;2.80;1.75;;;;;;;22.63;96.71;98893.41;330806;29;17619;-89
2023/08/26 00:16:07;;;;;;;2.65;1.75;;;;;;;22.61;97.45;98895.38;326918;29;4761;-89
2023/08/26 00:16:20;;;;;;;2.95;1.80;;;;;;;22.58;97.57;98898.34;329559;29;17833;-89
2023/08/26 00:16:32;;;;;;;2.85;1.70;;;;;;;22.55;97.78;98893.31;332754;29;4609;-89
2023/08/26 00:16:44;;;;;;;2.38;1.58;;;;;;;22.51;97.99;98895.41;330158;29;18144;-89
2023/08/26 00:16:57;;;;;;;2.50;1.50;;;;;;;22.47;98.41;98894.03;335777;28;4890;-89
2023/08/26 00:17:09;;;;;;;2.63;1.63;;;;;;;22.44;98.83;98891.69;334738;28;4739;-89
2023/08/26 00:17:21;;;;;;;2.70;1.67;;;;;;;22.39;98.87;98898.38;335995;28;4822;-89
2023/08/26 00:17:33;;;;;;;2.28;1.63;;;;;;;22.39;98.58;98893.09;334655;29;4504;-89
2023/08/26 00:17:46;;;;;;;2.17;1.60;;;;;;;22.38;98.91;98891.44;328035;29;4684;-90
2023/08/26 00:17:58;;;;;;;2.55;1.73;;;;;;;22.33;99.28;98886.56;336124;28;4491;-89
2023/08/26 00:18:11;;;;;;;2.75;1.90;;;;;;;22.28;99.55;98894.94;332847;28;17944;-89
2023/08/26 00:18:23;;;;;;;2.40;1.77;;;;;;;22.28;99.52;98892.28;336047;28;4569;-90
2023/08/26 00:18:35;;;;;;;2.22;1.80;;;;;;;22.22;100.00;98892.81;331589;28;4514;-90
2023/08/26 00:18:49;;;;;;;2.08;1.65;;;;;;;22.22;99.64;98898.13;334296;28;4561;-89
2023/08/26 00:19:01;;;;;;;2.22;1.60;;;;;;;22.20;100.00;98892.13;332145;29;16292;-89
2023/08/26 00:19:16;;;;;;;3.83;1.52;;;;;;;22.21;100.00;98895.59;333508;29;4493;-89
2023/08/26 00:19:28;;;;;;;3.42;1.50;;;;;;;22.16;100.00;98893.41;331502;29;17533;-89
2023/08/26 00:19:40;;;;;;;1.70;1.40;;;;;;;22.17;100.00;98892.41;331848;29;16483;-89
2023/08/26 00:19:52;;;;;;;3.35;1.70;;;;;;;22.17;100.00;98894.22;332113;29;4887;-89
2023/08/26 00:20:09;;;;;;;3.58;1.70;;;;;;;22.16;100.00;98888.09;332293;29;4499;-89
2023/08/26 00:20:21;;;;;;;2.10;1.48;;;;;;;22.16;100.00;98882.00;330631;29;16087;-89
2023/08/26 00:20:33;;;;;;;2.72;1.45;;;;;;;22.12;100.00;98892.03;329009;29;4722;-89
2023/08/26 00:20:45;;;;;;;3.67;1.65;;;;;;;22.08;100.00;98891.47;330934;29;10880;-90
2023/08/26 00:20:58;;;;;;;3.95;1.88;;;;;;;22.04;100.00;98883.97;333405;29;4557;-89
2023/08/26 00:21:10;;;;;;;2.97;1.73;;;;;;;22.02;100.00;98888.56;333542;29;4562;-89
2023/08/26 00:21:23;;;;;;;2.42;1.80;;;;;;;21.99;100.00;98881.72;336170;29;4530;-89
2023/08/26 00:21:35;;;;;;;2.05;1.58;;;;;;;21.96;100.00;98889.13;335457;29;4499;-89
2023/08/26 00:21:47;;;;;;;1.98;1.50;;;;;;;21.93;100.00;98888.44;331730;29;16319;-88
2023/08/26 00:22:00;;;;;;;2.28;1.48;;;;;;;21.92;100.00;98881.44;329384;29;4474;-89
2023/08/26 00:22:12;;;;;;;2.55;1.60;;;;;;;21.91;100.00;98885.09;330342;29;17506;-89
2023/08/26 00:22:24;;;;;;;2.50;1.95;;;;;;;21.91;100.00;98878.94;332073;29;4603;-90
2023/08/26 00:22:38;;;;;;;2.40;2.00;;;;;;;21.92;100.00;98884.09;329608;29;17075;-89
2023/08/26 00:22:50;;;;;;;2.45;1.90;;;;;;;21.92;100.00;98886.75;334346;29;4558;-88
2023/08/26 00:23:03;;;;;;;2.33;1.60;;;;;;;21.93;100.00;98882.28;333080;29;17893;-90
2023/08/26 00:23:15;;;;;;;2.15;1.60;;;;;;;21.90;100.00;98886.06;336424;28;4523;-89
2023/08/26 00:23:27;;;;;;;3.20;1.67;;;;;;;21.85;100.00;98887.44;329252;29;6648;-90
2023/08/26 00:23:39;;;;;;;3.28;1.80;;;;;;;21.81;100.00;98889.56;333953;29;15462;-89
2023/08/26 00:23:51;;;;;;;3.30;1.80;;;;;;;21.79;100.00;98886.19;327820;29;4582;-91
2023/08/26 00:24:04;;;;;;;1.95;1.65;;;;;;;21.78;100.00;98889.81;335897;28;4548;-88
2023/08/26 00:24:17;;;;;;;2.25;1.80;;;;;;;21.73;100.00;98886.75;332729;29;8377;-88
2023/08/26 00:24:29;;;;;;;2.50;1.90;;;;;;;21.70;100.00;98887.88;331609;29;17384;-88
2023/08/26 00:24:41;;;;;;;2.25;1.77;;;;;;;21.71;100.00;98888.69;332904;29;4463;-90
2023/08/26 00:24:53;;;;;;;2.05;1.50;;;;;;;21.69;100.00;98885.34;328665;29;17668;-90
2023/08/26 00:25:06;;;;;;;1.98;1.63;;;;;;;21.67;100.00;98892.59;334870;29;4622;-89
2023/08/26 00:25:18;;;;;;;2.20;1.60;;;;;;;21.66;100.00;98885.66;331987;29;16437;-90
2023/08/26 00:25:30;;;;;;;2.20;1.52;;;;;;;21.66;100.00;98888.31;333118;29;4534;-90
2023/08/26 00:25:42;;;;;;;3.92;1.58;;;;;;;21.68;100.00;98889.00;328423;29;4493;-90
2023/08/26 00:25:54;;;;;;;3.88;1.70;;;;;;;21.71;100.00;98883.41;331681;29;4547;-89
2023/08/26 00:26:07;;;;;;;2.95;1.80;;;;;;;21.70;100.00;98897.63;331816;29;4573;-89
2023/08/26 00:26:19;;;;;;;3.50;1.83;;;;;;;21.66;100.00;98894.41;329250;29;19120;-89
2023/08/26 00:26:31;;;;;;;4.43;2.05;;;;;;;21.67;100.00;98892.59;328449;29;4480;-89
2023/08/26 00:26:44;;;;;;;5.20;2.00;;;;;;;21.63;100.00;98891.22;330504;29;18742;-90
2023/08/26 00:26:56;;;;;;;4.18;1.90;;;;;;;21.62;100.00;98897.50;334372;28;5033;-89
2023/08/26 00:27:08;;;;;;;2.83;1.80;;;;;;;21.62;100.00;98900.13;334357;28;4562;-90
2023/08/26 00:27:20;;;;;;;3.90;1.90;;;;;;;21.55;100.00;98894.56;335848;28;4519;-89
2023/08/26 00:27:32;;;;;;;3.08;1.73;;;;;;;21.53;100.00;98894.69;335694;28;4543;-90
2023/08/26 00:27:44;;;;;;;2.40;1.67;;;;;;;21.56;100.00;98896.22;334163;28;18313;-91
2023/08/26 00:27:56;;;;;;;2.53;1.77;;;;;;;21.53;100.00;98892.06;335885;28;5133;-89
2023/08/26 00:28:08;;;;;;;2.45;1.80;;;;;;;21.49;100.00;98895.97;330031;28;4976;-89
2023/08/26 00:28:20;;;;;;;3.28;1.83;;;;;;;21.49;100.00;98895.09;336016;28;4453;-89
2023/08/26 00:28:33;;;;;;;3.25;1.70;;;;;;;21.45;100.00;98899.84;336039;28;4525;-89
2023/08/26 00:28:45;;;;;;;4.20;1.75;;;;;;;21.43;100.00;98896.50;334588;28;18164;-89
2023/08/26 00:28:57;;;;;;;3.20;1.60;;;;;;;21.43;100.00;98893.88;337032;28;4807;-89
2023/08/26 00:29:09;;;;;;;2.73;1.50;;;;;;;21.47;100.00;98897.91;332572;29;18648;-89
2023/08/26 00:29:21;;;;;;;2.35;1.67;;;;;;;21.47;100.00;98892.63;334512;29;4543;-90
2023/08/26 00:29:33;;;;;;;2.67;1.75;;;;;;;21.46;100.00;98890.94;335728;28;4470;-89
2023/08/26 00:29:45;;;;;;;4.05;1.70;;;;;;;21.45;100.00;98899.00;331446;28;16687;-88
2023/08/26 00:29:57;;;;;;;4.30;1.70;;;;;;;21.46;100.00;98900.69;332793;29;4563;-88
2023/08/26 00:30:10;;;;;;;3.95;1.60;;;;;;;21.46;100.00;98896.22;330630;29;18401;-89
2023/08/26 00:30:22;;;;;;;3.08;1.60;;;;;;;21.45;100.00;98889.28;334871;29;6031;-89
2023/08/26 00:30:34;;;;;;;3.10;1.80;;;;;;;21.43;100.00;98890.38;332088;29;16382;-90
2023/08/26 00:30:56;;;;;;;3.20;1.90;;;;;;;21.43;100.00;98880.66;335861;28;4545;-89
2023/08/26 00:31:08;;;;;;;2.40;1.80;;;;;;;21.45;100.00;98889.28;331366;29;17570;-89
2023/08/26 00:31:22;;;;;;;2.22;1.70;;;;;;;21.47;100.00;98882.03;327360;29;16943;-90
2023/08/26 00:31:34;;;;;;;2.67;1.63;;;;;;;21.47;100.00;98886.47;333553;29;4596;-89
2023/08/26 00:31:46;;;;;;;2.63;1.52;;;;;;;21.49;100.00;98880.09;329276;29;17019;-89
2023/08/26 00:31:58;;;;;;;2.72;1.85;;;;;;;21.51;100.00;98883.44;331148;29;4503;-89
2023/08/26 00:32:10;;;;;;;2.75;1.90;;;;;;;21.53;100.00;98886.78;328186;29;8929;-89
2023/08/26 00:32:22;;;;;;;2.55;1.75;;;;;;;21.56;100.00;98876.88;326900;29;4587;-90
2023/08/26 00:32:35;;;;;;;2.63;1.83;;;;;;;21.56;100.00;98877.72;329468;29;7099;-90
2023/08/26 00:32:47;;;;;;;2.67;1.83;;;;;;;21.59;100.00;98879.25;331692;29;4542;-90
2023/08/26 00:32:59;;;;;;;3.35;1.67;;;;;;;21.60;100.00;98878.28;330556;29;6785;-89
2023/08/26 00:33:11;;;;;;;3.45;1.65;;;;;;;21.62;100.00;98882.44;328482;29;17746;-89
2023/08/26 00:33:23;;;;;;;3.85;1.63;;;;;;;21.64;100.00;98877.03;330545;29;4752;-90
2023/08/26 00:33:35;;;;;;;3.67;1.75;;;;;;;21.66;100.00;98877.72;333219;29;19577;-89
2023/08/26 00:33:48;;;;;;;2.92;1.70;;;;;;;21.67;100.00;98880.22;329940;29;7916;-89
2023/08/26 00:34:02;;;;;;;2.40;1.70;;;;;;;21.70;100.00;98881.75;332673;28;4513;-90
2023/08/26 00:34:14;;;;;;;2.50;1.55;;;;;;;21.73;100.00;98881.47;331949;29;18317;-89
2023/08/26 00:34:27;;;;;;;2.42;1.50;;;;;;;21.74;100.00;98877.84;330467;29;17822;-89
2023/08/26 00:34:39;;;;;;;2.58;1.70;;;;;;;21.78;100.00;98883.72;333434;29;4492;-89
2023/08/26 00:34:51;;;;;;;2.80;1.90;;;;;;;21.77;100.00;98885.50;330571;29;11489;-89
2023/08/26 00:35:03;;;;;;;2.60;1.85;;;;;;;21.77;100.00;98880.19;331423;29;4503;-89
2023/08/26 00:35:16;;;;;;;2.83;1.70;;;;;;;21.80;100.00;98877.28;329433;29;17700;-89
2023/08/26 00:35:28;;;;;;;2.85;1.60;;;;;;;21.80;100.00;98876.47;333164;29;4600;-89
2023/08/26 00:35:40;;;;;;;1.92;1.50;;;;;;;21.78;100.00;98887.19;333810;28;4578;-91
2023/08/26 00:35:52;;;;;;;3.33;1.60;;;;;;;21.78;100.00;98879.25;332795;29;16577;-90
2023/08/26 00:36:05;;;;;;;3.97;1.65;;;;;;;21.79;100.00;98875.59;334579;29;4463;-89
2023/08/26 00:36:17;;;;;;;4.18;1.80;;;;;;;21.79;100.00;98880.91;331082;29;18189;-90
2023/08/26 00:36:33;;;;;;;3.83;1.80;;;;;;;21.81;100.00;98884.28;334641;29;4491;-88
2023/08/26 00:36:45;;;;;;;2.90;1.80;;;;;;;21.80;100.00;98882.59;331795;29;17804;-89
2023/08/26 00:36:57;;;;;;;2.58;1.75;;;;;;;21.80;100.00;98884.41;329050;28;17922;-89
2023/08/26 00:37:11;;;;;;;2.50;1.80;;;;;;;21.79;100.00;98891.47;335752;28;4492;-89
2023/08/26 00:37:23;;;;;;;2.05;1.60;;;;;;;21.78;100.00;98889.81;333208;29;16377;-90
2023/08/26 00:37:35;;;;;;;2.50;1.60;;;;;;;21.77;100.00;98890.78;335591;29;4592;-89
2023/08/26 00:37:48;;;;;;;2.72;1.65;;;;;;;21.77;100.00;98888.13;334370;28;18013;-91
2023/08/26 00:38:00;;;;;;;2.90;1.60;;;;;;;21.78;100.00;98886.34;335874;29;4571;-89
2023/08/26 00:38:12;;;;;;;1.90;1.33;;;;;;;21.76;100.00;98883.84;333369;29;4605;-89
2023/08/26 00:38:24;;;;;;;1.75;1.48;;;;;;;21.78;100.00;98883.72;335428;29;4558;-89
2023/08/26 00:38:36;;;;;;;2.40;1.70;;;;;;;21.77;100.00;98887.31;333272;29;4550;-90
2023/08/26 00:38:48;;;;;;;2.28;1.70;;;;;;;21.74;100.00;98891.09;334525;29;4702;-89
2023/08/26 00:39:01;;;;;;;2.60;1.73;;;;;;;21.69;100.00;98895.94;335392;29;4482;-90
2023/08/26 00:39:13;;;;;;;4.22;1.73;;;;;;;21.63;100.00;98881.50;332810;29;16570;-89
2023/08/26 00:39:25;;;;;;;4.35;1.70;;;;;;;21.64;100.00;98887.59;336707;28;5539;-89
2023/08/26 00:39:37;;;;;;;3.63;1.65;;;;;;;21.58;100.00;98888.16;331526;28;4556;-88
2023/08/26 00:39:49;;;;;;;3.47;2.10;;;;;;;21.54;100.00;98879.66;331418;28;16762;-90
2023/08/26 00:40:02;;;;;;;3.40;2.10;;;;;;;21.53;100.00;98886.78;336027;29;4485;-89
2023/08/26 00:40:14;;;;;;;2.90;1.88;;;;;;;21.52;100.00;98887.72;332159;29;7801;-90
2023/08/26 00:40:26;;;;;;;2.80;1.73;;;;;;;21.51;100.00;98886.06;333671;29;4503;-89
2023/08/26 00:40:38;;;;;;;2.25;1.67;;;;;;;21.51;100.00;98888.72;328027;29;16901;-90
2023/08/26 00:40:50;;;;;;;1.83;1.50;;;;;;;21.52;100.00;98887.72;332178;29;4616;-89
2023/08/26 00:41:02;;;;;;;2.20;1.52;;;;;;;21.53;100.00;98885.91;333121;29;4543;-89
2023/08/26 00:41:14;;;;;;;2.45;1.55;;;;;;;21.53;100.00;98885.91;328406;29;17979;-90
2023/08/26 00:41:26;;;;;;;2.78;1.67;;;;;;;21.53;100.00;98889.41;334813;29;4586;-90
2023/08/26 00:41:38;;;;;;;3.10;1.55;;;;;;;21.53;100.00;98880.63;334377;29;4495;-89
2023/08/26 00:41:50;;;;;;;2.97;1.50;;;;;;;21.56;100.00;98887.47;333169;28;18882;-90
2023/08/26 00:42:02;;;;;;;3.53;1.73;;;;;;;21.56;100.00;98884.81;337152;28;4599;-89
2023/08/26 00:42:14;;;;;;;3.17;1.83;;;;;;;21.56;100.00;98884.81;334285;28;16667;-89
2023/08/26 00:42:26;;;;;;;3.20;1.80;;;;;;;21.55;100.00;98891.94;334941;29;4656;-90
2023/08/26 00:42:38;;;;;;;2.38;1.58;;;;;;;21.57;100.00;98889.13;331969;29;4905;-90
2023/08/26 00:42:53;;;;;;;1.83;1.40;;;;;;;21.58;100.00;98882.88;329721;29;17894;-90
2023/08/26 00:43:08;;;;;;;1.83;1.50;;;;;;;21.62;100.00;98878.97;329023;29;4611;-89
2023/08/26 00:43:20;;;;;;;2.35;1.77;;;;;;;21.62;100.00;98884.25;330379;28;16639;-90
2023/08/26 00:43:33;;;;;;;2.50;1.77;;;;;;;21.62;100.00;98884.25;333136;29;4601;-90
2023/08/26 00:43:45;;;;;;;3.05;1.90;;;;;;;21.59;100.00;98882.75;330192;29;16437;-89
2023/08/26 00:43:57;;;;;;;5.18;2.20;;;;;;;21.58;100.00;98881.06;334492;29;4551;-90
2023/08/26 00:44:09;;;;;;;5.20;2.38;;;;;;;21.58;100.00;98874.94;334487;29;4490;-89
2023/08/26 00:44:22;;;;;;;3.53;2.10;;;;;;;21.59;100.00;98874.81;325995;29;18202;-89
2023/08/26 00:44:34;;;;;;;3.65;1.58;;;;;;;21.59;100.00;98873.94;334053;29;4525;-89
2023/08/26 00:44:46;;;;;;;3.72;2.00;;;;;;;21.62;100.00;98868.41;333058;28;17588;-90
2023/08/26 00:44:58;;;;;;;2.47;2.00;;;;;;;21.62;100.00;98873.69;335246;29;4530;-90
2023/08/26 00:45:10;;;;;;;2.67;2.05;;;;;;;21.65;100.00;98865.47;332578;29;8944;-90
2023/08/26 00:45:23;;;;;;;2.70;1.98;;;;;;;21.67;100.00;98871.44;335785;29;4553;-90
2023/08/26 00:45:43;;;;;;;3.00;2.05;;;;;;;21.72;100.00;98869.22;334844;29;4698;-89
2023/08/26 00:45:55;;;;;;;3.55;1.80;;;;;;;21.74;100.00;98869.91;332406;29;17191;-89
2023/08/26 00:46:07;;;;;;;3.65;1.83;;;;;;;21.77;100.00;98871.44;330322;29;17645;-89
2023/08/26 00:46:21;;;;;;;3.38;1.88;;;;;;;21.79;100.00;98865.03;332980;29;4695;-90
2023/08/26 00:46:34;;;;;;;2.92;1.60;;;;;;;21.84;100.00;98868.09;327059;29;17567;-89
2023/08/26 00:46:46;;;;;;;3.70;1.80;;;;;;;21.86;100.00;98860.84;329881;29;4468;-89
2023/08/26 00:47:00;;;;;;;3.30;1.90;;;;;;;21.88;100.00;98864.19;333561;29;4488;-90
2023/08/26 00:47:12;;;;;;;2.40;1.70;;;;;;;21.90;100.00;98867.53;326154;29;17521;-89
2023/08/26 00:47:25;;;;;;;2.30;1.67;;;;;;;21.92;100.00;98878.81;332286;29;4450;-89
2023/08/26 00:47:37;;;;;;;3.00;1.80;;;;;;;21.94;100.00;98868.91;325213;29;18182;-90
2023/08/26 00:47:50;;;;;;;2.67;1.75;;;;;;;21.97;100.00;98866.97;330792;29;4483;-89
2023/08/26 00:48:02;;;;;;;3.35;2.00;;;;;;;21.98;100.00;98874.78;327723;29;16139;-90
2023/08/26 00:48:15;;;;;;;3.85;2.00;;;;;;;21.99;100.00;98871.13;331595;29;4552;-89
2023/08/26 00:48:28;;;;;;;3.70;1.80;;;;;;;22.02;100.00;98870.03;330573;29;17437;-90
2023/08/26 00:48:41;;;;;;;3.53;1.70;;;;;;;22.01;100.00;98869.16;329409;29;4662;-89
2023/08/26 00:48:53;;;;;;;3.10;1.60;;;;;;;22.03;100.00;98866.41;333177;29;17872;-89
2023/08/26 00:49:06;;;;;;;1.83;1.40;;;;;;;22.04;100.00;98868.91;336237;29;5070;-89
2023/08/26 00:49:18;;;;;;;1.98;1.42;;;;;;;22.04;100.00;98873.38;331805;29;17880;-89
2023/08/26 00:49:31;;;;;;;2.38;1.60;;;;;;;22.05;100.00;98875.03;334596;29;4516;-89
2023/08/26 00:49:43;;;;;;;1.92;1.48;;;;;;;22.06;100.00;98871.41;330307;29;18218;-89
2023/08/26 00:49:56;;;;;;;1.90;1.40;;;;;;;22.07;100.00;98878.34;333016;29;4545;-89
2023/08/26 00:50:08;;;;;;;3.10;1.70;;;;;;;22.08;100.00;98880.88;332460;29;4545;-89
2023/08/26 00:50:20;;;;;;;3.40;1.70;;;;;;;22.07;100.00;98875.72;332300;29;16074;-90
2023/08/26 00:50:32;;;;;;;2.13;1.50;;;;;;;22.05;100.00;98875.03;332578;28;4601;-90
2023/08/26 00:50:47;;;;;;;2.17;1.50;;;;;;;22.04;100.00;98873.38;332088;29;15809;-90
2023/08/26 00:50:59;;;;;;;2.33;1.50;;;;;;;22.01;100.00;98873.63;329263;29;17875;-90
2023/08/26 00:51:11;;;;;;;2.50;1.60;;;;;;;22.02;100.00;98875.31;330991;29;4541;-90
2023/08/26 00:51:24;;;;;;;2.80;1.55;;;;;;;22.03;100.00;98876.97;329414;29;16541;-90
2023/08/26 00:51:37;;;;;;;2.40;1.42;;;;;;;22.04;100.00;98878.66;332132;29;4550;-90
2023/08/26 00:51:50;;;;;;;3.22;1.60;;;;;;;22.06;100.00;98874.06;328797;29;18110;-90
2023/08/26 00:52:02;;;;;;;3.47;1.88;;;;;;;22.02;100.00;98881.44;331890;29;4532;-90
2023/08/26 00:52:14;;;;;;;2.88;1.80;;;;;;;21.98;100.00;98873.94;329409;29;16345;-91
2023/08/26 00:52:27;;;;;;;2.53;1.63;;;;;;;21.99;100.00;98875.59;331890;29;4999;-90
2023/08/26 00:52:40;;;;;;;2.20;1.50;;;;;;;22.03;100.00;98871.69;329383;29;17964;-89
2023/08/26 00:52:53;;;;;;;1.88;1.25;;;;;;;22.00;100.00;98875.47;331814;29;4543;-89
2023/08/26 00:53:12;;;;;;;2.10;1.50;;;;;;;21.98;100.00;98873.94;328545;29;17519;-89
2023/08/26 00:53:24;;;;;;;3.17;1.88;;;;;;;21.98;100.00;98871.28;328554;29;17339;-89
2023/08/26 00:53:37;;;;;;;2.70;1.70;;;;;;;22.02;100.00;98876.16;330970;29;4875;-89
2023/08/26 00:53:49;;;;;;;2.03;1.60;;;;;;;22.03;100.00;98879.63;327575;29;16565;-90
2023/08/26 00:54:01;;;;;;;2.22;1.70;;;;;;;22.06;100.00;98876.72;332065;29;4484;-90
2023/08/26 00:54:14;;;;;;;3.08;1.67;;;;;;;22.05;100.00;98880.31;329150;29;9571;-90
2023/08/26 00:54:27;;;;;;;3.35;1.63;;;;;;;22.09;100.00;98881.69;328964;29;4471;-90
2023/08/26 00:54:39;;;;;;;2.30;1.60;;;;;;;22.04;100.00;98879.50;330259;29;17592;-90
2023/08/26 00:54:52;;;;;;;2.60;1.75;;;;;;;22.06;100.00;98882.81;334106;29;4509;-89
2023/08/26 00:55:05;;;;;;;4.22;1.80;;;;;;;22.09;100.00;98887.00;331969;29;6660;-90
2023/08/26 00:55:17;;;;;;;4.60;1.88;;;;;;;22.11;100.00;98885.03;333095;29;4529;-89
2023/08/26 00:55:30;;;;;;;4.00;1.60;;;;;;;22.12;100.00;98881.44;330666;29;18881;-90
2023/08/26 00:55:46;;;;;;;2.28;1.60;;;;;;;22.12;100.00;98887.56;334172;29;4512;-90
2023/08/26 00:56:00;;;;;;;4.63;1.60;;;;;;;22.11;100.00;98885.03;333184;29;16411;-89
2023/08/26 00:56:12;;;;;;;4.38;1.50;;;;;;;22.14;100.00;98884.78;334520;28;16612;-89
2023/08/26 00:56:24;;;;;;;3.38;1.52;;;;;;;22.14;100.00;98885.59;336456;28;4541;-90
2023/08/26 00:56:37;;;;;;;3.05;1.45;;;;;;;22.10;100.00;98889.50;333220;29;18011;-89
2023/08/26 00:56:49;;;;;;;4.25;1.60;;;;;;;22.13;100.00;98891.03;336007;29;4615;-89
2023/08/26 00:57:04;;;;;;;3.05;1.58;;;;;;;22.15;100.00;98889.06;333009;28;16889;-90
2023/08/26 00:57:16;;;;;;;2.53;1.60;;;;;;;22.12;100.00;98892.03;333091;28;17539;-89
2023/08/26 00:57:28;;;;;;;2.85;1.70;;;;;;;22.12;100.00;98887.56;335498;29;4456;-90
2023/08/26 00:57:41;;;;;;;2.30;1.70;;;;;;;22.14;100.00;98885.59;330820;29;15336;-89
2023/08/26 00:57:55;;;;;;;2.22;1.60;;;;;;;22.12;100.00;98886.72;334531;29;4600;-89
2023/08/26 00:58:07;;;;;;;2.22;1.48;;;;;;;22.13;100.00;98893.66;330553;29;16445;-90
2023/08/26 00:58:20;;;;;;;2.60;1.60;;;;;;;22.16;100.00;98893.41;333006;29;4553;-89
2023/08/26 00:58:32;;;;;;;3.00;1.70;;;;;;;22.16;100.00;98888.09;331432;29;16980;-90
2023/08/26 00:58:44;;;;;;;2.25;1.55;;;;;;;22.18;100.00;98891.44;331595;29;4509;-89
2023/08/26 00:58:56;;;;;;;1.60;1.40;;;;;;;22.21;100.00;98898.25;328497;29;17818;-89
2023/08/26 00:59:09;;;;;;;1.50;1.40;;;;;;;22.21;100.00;98900.91;331613;29;17327;-90
2023/08/26 00:59:21;;;;;;;2.13;1.50;;;;;;;22.21;100.00;98896.44;331642;29;17191;-90
2023/08/26 00:59:33;;;;;;;2.00;1.27;;;;;;;22.15;100.00;98912.88;334342;29;4550;-90